»·PEaware :: N921VN KSZP-L52

N921VN :: KSZP-L52

FLIGHT INFORMATION

Flight Status: Arrived
Operator: Privately registered:
United States
More flights under this callsign
Pilot: Kevin M. (7)
Aircraft: CESSNA 172 SKYHAWK
(C172)
More flights by this aircraft type
Origin: KSZP Santa Paula
United States
Destination: L52 Oceano Co
United States
More flights between these airports :: More routes between these airports
Route: KLPC
File this flight plan on PilotEdge
Remarks: Instagram group flight
Altitude:
(Current/Filed)
4,500ft
Speed:
(Current/Filed)
130kts
Departed: 02-Jul-19 12:19 PM
Arrived: 02-Jul-19 01:25 PM
Distance/Time
Traveled:
89nm/1:06
Distance/Time
To Go:
Arrived

Flight Plot

Page will automatically refresh every two minutes.

Flight plan parsing failed; only flown route is shown


Map Options




Map Legend


Flown Route
Filed Route
Departure Airport
Arrival Airport
Navaid (VOR, NDB)
Fix

Horizontal Profiles

Position Reports

Time Latitude Longitude Heading Altitude Ground
Speed
02-Jul-19 11:54 34.348511 -119.060574 86 243ft 13kts
02-Jul-19 11:55 34.348412 -119.060441 196 243ft 0kts
02-Jul-19 11:56 34.348412 -119.060441 196 243ft 0kts
02-Jul-19 11:57 34.348412 -119.060441 196 243ft 0kts
02-Jul-19 11:58 34.348412 -119.060441 196 243ft 0kts
02-Jul-19 11:59 34.348412 -119.060441 196 243ft 0kts
02-Jul-19 12:00 34.348412 -119.060441 196 243ft 0kts
02-Jul-19 12:01 34.348412 -119.060441 196 243ft 0kts
02-Jul-19 12:02 34.348412 -119.060441 196 243ft 0kts
02-Jul-19 12:03 34.348412 -119.060441 196 243ft 0kts
02-Jul-19 12:04 34.348412 -119.060441 196 243ft 0kts
02-Jul-19 12:05 34.348412 -119.060441 196 243ft 0kts
02-Jul-19 12:06 34.348412 -119.060441 196 243ft 0kts
02-Jul-19 12:07 34.348412 -119.060441 196 243ft 0kts
02-Jul-19 12:08 34.348412 -119.060441 196 243ft 0kts
02-Jul-19 12:09 34.348412 -119.060441 196 243ft 0kts
02-Jul-19 12:10 34.348412 -119.060441 196 243ft 0kts
02-Jul-19 12:11 34.348412 -119.060441 196 243ft 0kts
02-Jul-19 12:12 34.348412 -119.060441 196 243ft 0kts
02-Jul-19 12:13 34.348412 -119.060441 196 243ft 0kts
02-Jul-19 12:14 34.348412 -119.060441 196 243ft 0kts
02-Jul-19 12:15 34.348411 -119.060441 196 243ft 0kts
02-Jul-19 12:16 34.348974 -119.058483 57 247ft 0kts
02-Jul-19 12:17 34.348974 -119.058483 57 247ft 0kts
02-Jul-19 12:18 34.343015 -119.070403 242 655ft 71kts
02-Jul-19 12:19 34.345731 -119.097660 268 1504ft 86kts
02-Jul-19 12:20 34.343718 -119.127432 260 2288ft 87kts
02-Jul-19 12:21 34.340307 -119.156145 255 2816ft 87kts
02-Jul-19 12:22 34.335929 -119.184764 251 3322ft 87kts
02-Jul-19 12:23 34.330135 -119.213061 261 3774ft 90kts
02-Jul-19 12:24 34.329101 -119.243385 271 4212ft 91kts
02-Jul-19 12:25 34.331764 -119.274298 278 4567ft 96kts
02-Jul-19 12:26 34.329489 -119.308641 261 4588ft 114kts
02-Jul-19 12:27 34.325252 -119.347765 262 4473ft 116kts
02-Jul-19 12:28 34.331932 -119.385071 290 4470ft 116kts
02-Jul-19 12:29 34.344932 -119.420579 297 4468ft 114kts
02-Jul-19 12:30 34.357946 -119.455725 286 4495ft 114kts
02-Jul-19 12:31 34.367752 -119.492995 295 4468ft 118kts
02-Jul-19 12:32 34.380820 -119.528990 291 4518ft 116kts
02-Jul-19 12:33 34.391592 -119.566462 283 4540ft 118kts
02-Jul-19 12:34 34.396179 -119.607888 278 4521ft 130kts
02-Jul-19 12:35 34.400807 -119.652005 277 4525ft 133kts
02-Jul-19 12:36 34.406176 -119.695932 279 4511ft 134kts
02-Jul-19 12:37 34.412853 -119.740360 283 4525ft 129kts
02-Jul-19 12:38 34.419126 -119.783401 279 4595ft 131kts
02-Jul-19 12:39 34.422436 -119.826983 276 4695ft 130kts
02-Jul-19 12:40 34.427931 -119.872666 281 4404ft 136kts
02-Jul-19 12:41 34.434831 -119.915822 284 4178ft 130kts
02-Jul-19 12:42 34.441151 -119.952914 281 4620ft 118kts
02-Jul-19 12:43 34.450135 -119.989852 288 4527ft 90kts
02-Jul-19 12:44 34.458174 -120.015495 295 4367ft 81kts
02-Jul-19 12:45 34.464172 -120.044460 275 4417ft 99kts
02-Jul-19 12:46 34.466179 -120.078360 280 4423ft 99kts
02-Jul-19 12:47 34.468516 -120.110418 260 4534ft 96kts
02-Jul-19 12:48 34.471003 -120.145820 282 4051ft 117kts
02-Jul-19 12:49 34.475603 -120.179525 281 3971ft 137kts
02-Jul-19 12:50 34.503970 -120.188125 353 4545ft 108kts
02-Jul-19 12:51 34.533607 -120.182433 1 4709ft 126kts
02-Jul-19 12:52 34.569154 -120.176017 352 4509ft 137kts
02-Jul-19 12:53 34.596424 -120.197840 293 4387ft 118kts
02-Jul-19 12:54 34.614078 -120.235096 290 3580ft 135kts
02-Jul-19 12:55 34.629073 -120.272651 289 3037ft 123kts
02-Jul-19 12:56 34.644011 -120.308503 293 2698ft 117kts
02-Jul-19 12:57 34.659017 -120.343431 278 2338ft 111kts
02-Jul-19 12:58 34.664142 -120.381357 279 1291ft 108kts
02-Jul-19 12:59 34.664966 -120.421220 273 599ft 109kts
02-Jul-19 13:00 34.665476 -120.452938 270 223ft 82kts
02-Jul-19 13:02 34.664969 -120.467039 92 83ft 12kts
02-Jul-19 13:03 34.664927 -120.464715 90 83ft 9kts
02-Jul-19 13:04 34.664865 -120.460258 87 86ft 8kts
02-Jul-19 13:05 34.665565 -120.460754 270 86ft 26kts
02-Jul-19 13:06 34.674757 -120.472836 48 717ft 104kts
02-Jul-19 13:07 34.679359 -120.436074 35 1117ft 113kts
02-Jul-19 13:08 34.704472 -120.421149 12 1739ft 94kts
02-Jul-19 13:09 34.732977 -120.410066 4 2178ft 111kts
02-Jul-19 13:10 34.760262 -120.415583 335 2842ft 95kts
02-Jul-19 13:11 34.784952 -120.427044 338 3108ft 99kts
02-Jul-19 13:12 34.814625 -120.436989 339 2958ft 119kts
02-Jul-19 13:13 34.845327 -120.447345 341 2939ft 119kts
02-Jul-19 13:14 34.874962 -120.457674 331 3112ft 109kts
02-Jul-19 13:15 34.898766 -120.483873 328 2839ft 135kts
02-Jul-19 13:16 34.919635 -120.511492 296 3043ft 123kts
02-Jul-19 13:17 34.939040 -120.544919 319 3086ft 110kts
02-Jul-19 13:18 34.969381 -120.560728 341 2801ft 132kts
02-Jul-19 13:19 35.004065 -120.571939 349 2258ft 120kts
02-Jul-19 13:20 35.034413 -120.581483 341 1916ft 110kts
02-Jul-19 13:20 35.058101 -120.587456 347 1375ft 100kts
02-Jul-19 13:22 35.086273 -120.596437 320 663ft 88kts
02-Jul-19 13:23 35.091763 -120.612325 197 380ft 70kts
02-Jul-19 13:23 35.093636 -120.607892 310 305ft 65kts
02-Jul-19 13:25 35.101453 -120.622190 301 18ft 10kts
02-Jul-19 13:25 35.102264 -120.622363 18 18ft 0kts

Navigation Log

Ident Type
Flight plan parsing failed, navigation log unavailable